createdAt,value
2019-03-22T00:00:34.726Z,19.88
2019-03-22T00:03:08.835Z,19.42
2019-03-22T00:05:42.848Z,17.79
2019-03-22T00:08:16.773Z,16.66
2019-03-22T00:10:50.959Z,15.89
2019-03-22T00:13:25.274Z,15.30
2019-03-22T00:16:01.305Z,14.83
2019-03-22T00:18:35.575Z,14.41
2019-03-22T00:21:10.721Z,14.08
2019-03-22T00:23:45.043Z,13.73
2019-03-22T00:26:19.311Z,13.42
2019-03-22T00:28:53.531Z,13.14
2019-03-22T00:31:28.392Z,12.92
2019-03-22T00:34:03.732Z,15.53
2019-03-22T00:36:39.793Z,19.46
2019-03-22T00:39:14.108Z,19.15
2019-03-22T00:41:48.350Z,17.45
2019-03-22T00:44:22.586Z,16.27
2019-03-22T00:46:56.895Z,15.45
2019-03-22T00:49:31.157Z,14.84
2019-03-22T00:52:05.464Z,14.38
2019-03-22T00:54:39.687Z,13.94
2019-03-22T00:57:13.975Z,13.60
2019-03-22T00:59:48.291Z,13.25
2019-03-22T01:02:22.412Z,12.93
2019-03-22T01:04:56.614Z,12.60
2019-03-22T01:07:30.932Z,12.35
2019-03-22T01:10:05.761Z,15.01
2019-03-22T01:12:40.388Z,19.01
2019-03-22T01:15:14.702Z,18.60
2019-03-22T01:17:50.121Z,16.93
2019-03-22T01:20:24.451Z,15.76
2019-03-22T01:22:58.758Z,14.96
2019-03-22T01:25:33.063Z,14.35
2019-03-22T01:28:07.636Z,13.87
2019-03-22T01:30:41.889Z,13.49
2019-03-22T01:33:16.136Z,13.13
2019-03-22T01:35:50.582Z,12.79
2019-03-22T01:38:24.894Z,12.48
2019-03-22T01:40:59.230Z,15.03
2019-03-22T01:43:33.591Z,18.91
2019-03-22T01:46:15.817Z,18.55
2019-03-22T01:48:50.141Z,16.80
2019-03-22T01:51:24.394Z,15.66
2019-03-22T01:53:58.731Z,14.87
2019-03-22T01:56:33.386Z,14.31
2019-03-22T01:59:07.715Z,13.83
2019-03-22T02:01:41.944Z,13.43
2019-03-22T02:04:17.287Z,13.08
2019-03-22T02:06:51.529Z,12.76
2019-03-22T02:09:25.788Z,15.31
2019-03-22T02:12:00.459Z,19.10
2019-03-22T02:14:34.783Z,18.75
2019-03-22T02:17:09.994Z,17.10
2019-03-22T02:19:44.832Z,15.93
2019-03-22T02:22:19.133Z,15.11
2019-03-22T02:24:54.530Z,14.47
2019-03-22T02:27:28.866Z,13.96
2019-03-22T02:30:03.143Z,13.55
2019-03-22T02:32:37.331Z,13.17
2019-03-22T02:35:26.913Z,12.83
2019-03-22T02:37:47.685Z,15.38
2019-03-22T02:40:22.075Z,19.30
2019-03-22T02:42:56.423Z,18.84
2019-03-22T02:45:30.734Z,17.15
2019-03-22T02:48:05.099Z,15.94
2019-03-22T02:50:39.389Z,15.14
2019-03-22T02:53:13.745Z,14.53
2019-03-22T02:55:48.097Z,14.04
2019-03-22T02:58:22.434Z,13.63
2019-03-22T03:00:56.687Z,13.25
2019-03-22T03:03:31.335Z,12.93
2019-03-22T03:06:05.605Z,12.62
2019-03-22T03:08:41.466Z,15.24
2019-03-22T03:11:15.804Z,19.32
2019-03-22T03:13:50.109Z,18.95
2019-03-22T03:16:26.629Z,17.18
2019-03-22T03:19:01.061Z,15.96
2019-03-22T03:21:36.393Z,15.11
2019-03-22T03:24:10.631Z,14.51
2019-03-22T03:26:44.909Z,14.00
2019-03-22T03:29:19.261Z,13.58
2019-03-22T03:31:53.512Z,13.21
2019-03-22T03:34:28.231Z,12.88
2019-03-22T03:37:07.073Z,12.56
2019-03-22T03:39:41.277Z,15.11
2019-03-22T03:42:15.620Z,19.03
2019-03-22T03:44:49.908Z,18.59
2019-03-22T03:47:24.168Z,16.90
2019-03-22T03:49:59.038Z,15.73
2019-03-22T03:52:33.359Z,14.96
2019-03-22T03:55:08.989Z,14.32
2019-03-22T03:57:43.251Z,13.85
2019-03-22T04:00:18.172Z,13.42
2019-03-22T04:02:52.523Z,13.07
2019-03-22T04:05:26.842Z,15.45
2019-03-22T04:08:01.126Z,19.49
2019-03-22T04:10:35.788Z,19.08
2019-03-22T04:13:10.086Z,17.35
2019-03-22T04:15:44.359Z,16.16
2019-03-22T04:18:18.699Z,15.31
2019-03-22T04:20:52.944Z,14.69
2019-03-22T04:23:27.270Z,14.17
2019-03-22T04:26:01.494Z,13.75
2019-03-22T04:28:35.804Z,13.41
2019-03-22T04:31:11.105Z,15.76
2019-03-22T04:33:45.485Z,19.74
2019-03-22T04:36:19.812Z,19.31
2019-03-22T04:38:54.260Z,17.57
2019-03-22T04:41:28.540Z,16.36
2019-03-22T04:44:06.815Z,15.49
2019-03-22T04:46:41.456Z,14.87
2019-03-22T04:49:16.551Z,14.36
2019-03-22T04:51:51.122Z,13.96
2019-03-22T04:54:25.441Z,13.56
2019-03-22T04:56:59.807Z,13.24
2019-03-22T04:59:34.093Z,15.80
2019-03-22T05:02:08.465Z,19.60
2019-03-22T05:04:42.832Z,19.12
2019-03-22T05:07:17.147Z,17.45
2019-03-22T05:09:51.429Z,16.31
2019-03-22T05:12:26.021Z,15.48
2019-03-22T05:15:00.359Z,14.88
2019-03-22T05:17:35.745Z,14.41
2019-03-22T05:20:09.926Z,14.01
2019-03-22T05:22:44.011Z,13.66
2019-03-22T05:25:17.984Z,13.32
2019-03-22T05:27:51.944Z,15.93
2019-03-22T05:31:24.046Z,19.87
2019-03-22T05:33:58.426Z,18.77
2019-03-22T05:36:32.369Z,17.24
2019-03-22T05:39:09.444Z,16.23
2019-03-22T05:41:43.379Z,15.48
2019-03-22T05:44:17.347Z,14.94
2019-03-22T05:46:51.183Z,14.49
2019-03-22T05:49:25.407Z,14.08
2019-03-22T05:51:59.625Z,13.73
2019-03-22T05:54:33.719Z,13.39
2019-03-22T05:57:13.583Z,16.11
2019-03-22T05:59:44.697Z,20.00
2019-03-22T06:02:18.877Z,19.49
2019-03-22T06:04:53.048Z,17.74
2019-03-22T06:07:27.235Z,16.58
2019-03-22T06:10:01.276Z,15.79
2019-03-22T06:12:35.255Z,15.18
2019-03-22T06:15:10.041Z,14.70
2019-03-22T06:17:51.690Z,14.29
2019-03-22T06:20:20.158Z,13.92
2019-03-22T06:22:54.835Z,13.62
2019-03-22T06:25:29.007Z,16.17
2019-03-22T06:28:04.921Z,19.94
2019-03-22T06:30:38.991Z,19.48
2019-03-22T06:33:13.152Z,17.76
2019-03-22T06:35:47.393Z,16.63
2019-03-22T06:38:21.296Z,15.84
2019-03-22T06:40:56.088Z,15.22
2019-03-22T06:43:30.033Z,14.77
2019-03-22T06:46:05.424Z,14.38
2019-03-22T06:48:39.418Z,14.00
2019-03-22T06:51:13.356Z,13.70
2019-03-22T06:53:47.331Z,16.20
2019-03-22T06:56:21.299Z,19.87
2019-03-22T06:58:55.268Z,19.52
2019-03-22T07:01:29.258Z,17.87
2019-03-22T07:04:04.280Z,16.73
2019-03-22T07:06:38.247Z,15.97
2019-03-22T07:09:12.752Z,15.39
2019-03-22T07:11:46.703Z,14.94
2019-03-22T07:14:20.691Z,14.56
2019-03-22T07:16:54.605Z,14.21
2019-03-22T07:19:28.617Z,13.90
2019-03-22T07:22:02.566Z,16.48
2019-03-22T07:24:36.571Z,20.27
2019-03-22T07:27:10.554Z,19.86
2019-03-22T07:29:44.554Z,18.17
2019-03-22T07:32:18.545Z,17.07
2019-03-22T07:34:52.507Z,16.32
2019-03-22T07:37:26.459Z,15.76
2019-03-22T07:40:00.450Z,15.31
2019-03-22T07:42:34.433Z,14.93
2019-03-22T07:45:08.499Z,14.56
2019-03-22T07:47:42.445Z,14.28
2019-03-22T07:50:18.354Z,14.00
2019-03-22T07:52:52.282Z,16.62
2019-03-22T07:55:26.268Z,20.48
2019-03-22T07:58:00.315Z,20.13
2019-03-22T08:00:34.283Z,18.48
2019-03-22T08:03:09.675Z,17.35
2019-03-22T08:05:50.969Z,16.59
2019-03-22T08:08:20.989Z,16.03
2019-03-22T08:10:56.428Z,15.58
2019-03-22T08:13:30.401Z,15.19
2019-03-22T08:16:04.277Z,17.59
2019-03-22T08:18:38.274Z,21.41
2019-03-22T08:21:12.184Z,21.17
2019-03-22T08:23:46.136Z,19.60
2019-03-22T08:26:20.075Z,18.52
2019-03-22T08:28:54.013Z,17.80
2019-03-22T08:31:27.999Z,17.29
2019-03-22T08:34:01.954Z,16.91
2019-03-22T08:36:36.837Z,16.45
2019-03-22T08:39:11.360Z,16.06
2019-03-22T08:41:45.339Z,15.72
2019-03-22T08:44:19.654Z,15.37
2019-03-22T08:46:53.658Z,15.07
2019-03-22T08:49:27.743Z,14.76
2019-03-22T08:52:01.998Z,14.48
2019-03-22T08:54:38.326Z,14.27
2019-03-22T08:57:13.263Z,16.93
2019-03-22T08:59:47.131Z,20.73
2019-03-22T09:02:21.196Z,20.38
2019-03-22T09:04:55.185Z,18.79
2019-03-22T09:07:29.128Z,17.61
2019-03-22T09:10:03.019Z,16.84
2019-03-22T09:12:36.994Z,16.29
2019-03-22T09:15:11.031Z,15.84
2019-03-22T09:17:44.971Z,15.48
2019-03-22T09:20:18.919Z,15.11
2019-03-22T09:22:52.846Z,14.82
2019-03-22T09:25:26.827Z,14.55
2019-03-22T09:28:00.727Z,14.27
2019-03-22T09:30:35.747Z,14.03
2019-03-22T09:33:09.982Z,16.69
2019-03-22T09:35:43.909Z,20.51
2019-03-22T09:38:17.879Z,20.27
2019-03-22T09:40:51.817Z,18.62
2019-03-22T09:43:25.808Z,17.49
2019-03-22T09:46:00.903Z,16.74
2019-03-22T09:48:34.897Z,16.21
2019-03-22T09:51:08.829Z,15.77
2019-03-22T09:53:44.284Z,15.39
2019-03-22T09:56:19.523Z,15.10
2019-03-22T09:58:54.554Z,14.77
2019-03-22T10:01:30.969Z,14.51
2019-03-22T10:04:05.157Z,14.27
2019-03-22T10:06:39.138Z,16.80
2019-03-22T10:09:13.098Z,20.68
2019-03-22T10:11:47.392Z,20.38
2019-03-22T10:14:21.582Z,18.82
2019-03-22T10:16:55.716Z,17.66
2019-03-22T10:19:29.824Z,16.96
2019-03-22T10:22:04.071Z,16.41
2019-03-22T10:24:40.470Z,15.94
2019-03-22T10:27:14.479Z,15.58
2019-03-22T10:29:48.800Z,15.27
2019-03-22T10:32:23.972Z,14.97
2019-03-22T10:34:59.631Z,14.72
2019-03-22T10:37:33.975Z,14.49
2019-03-22T10:40:08.209Z,14.27
2019-03-22T10:42:44.275Z,16.58
2019-03-22T10:45:18.374Z,20.49
2019-03-22T10:47:52.432Z,20.28
2019-03-22T13:39:39.691Z,22.56
2019-03-22T13:42:13.874Z,20.43
2019-03-22T13:44:49.196Z,19.04
2019-03-22T13:47:24.761Z,18.05
2019-03-22T13:49:58.943Z,17.41
2019-03-22T13:52:33.314Z,16.87
2019-03-22T13:55:18.285Z,16.42
2019-03-22T14:01:55.705Z,15.43
2019-03-22T14:04:35.744Z,15.10
2019-03-22T14:07:21.011Z,14.79
2019-03-22T14:09:58.192Z,14.51
2019-03-22T14:12:40.851Z,14.22
2019-03-22T14:15:20.455Z,16.91
2019-03-22T14:18:01.119Z,20.87
2019-03-22T14:20:48.461Z,20.39
2019-03-22T14:23:25.550Z,18.66
2019-03-22T14:25:59.744Z,17.59
2019-03-22T14:28:38.693Z,16.87
2019-03-22T14:31:12.749Z,16.29
2019-03-22T14:33:51.262Z,15.83
2019-03-22T14:36:27.352Z,15.49
2019-03-22T14:39:01.794Z,15.14
2019-03-22T14:41:37.240Z,14.83
2019-03-22T14:44:12.154Z,14.58
2019-03-22T14:46:49.984Z,14.31
2019-03-22T14:49:32.025Z,16.96
2019-03-22T14:52:05.284Z,20.76
2019-03-22T14:54:47.905Z,20.10
2019-03-22T14:57:28.509Z,18.46
2019-03-22T15:00:03.435Z,17.38
2019-03-22T15:02:38.126Z,16.69
2019-03-22T15:05:13.719Z,16.17
2019-03-22T15:07:48.408Z,15.74
2019-03-22T15:10:22.743Z,15.34
2019-03-22T15:12:57.096Z,15.03
2019-03-22T15:15:59.900Z,14.68
2019-03-22T15:19:04.800Z,14.32
2019-03-22T15:22:13.122Z,17.74
2019-03-22T15:25:11.586Z,18.38
2019-03-22T15:28:21.748Z,16.97
2019-03-22T15:31:29.450Z,15.98
2019-03-22T15:34:24.326Z,15.37
2019-03-22T15:37:27.269Z,14.93
2019-03-22T15:40:04.486Z,14.52
2019-03-22T15:42:39.044Z,17.11
2019-03-22T15:45:13.996Z,20.64
2019-03-22T15:47:48.425Z,19.60
2019-03-22T15:50:22.675Z,18.12
2019-03-22T15:52:56.708Z,17.10
2019-03-22T15:55:31.067Z,16.42
2019-03-22T15:58:05.499Z,15.87
2019-03-22T16:00:39.931Z,15.45
2019-03-22T16:03:14.125Z,15.06
2019-03-22T16:05:48.386Z,14.73
2019-03-22T16:08:22.557Z,14.42
2019-03-22T16:10:56.736Z,17.03
2019-03-22T16:13:31.340Z,20.53
2019-03-22T16:16:07.633Z,19.56
2019-03-22T16:18:44.336Z,18.05
2019-03-22T16:21:19.802Z,17.00
2019-03-22T16:23:55.910Z,16.27
2019-03-22T16:26:31.452Z,15.74
2019-03-22T16:29:05.795Z,15.30
2019-03-22T16:31:40.027Z,14.93
2019-03-22T16:34:14.255Z,14.63
2019-03-22T16:36:48.688Z,16.97
2019-03-22T16:39:23.083Z,20.72
2019-03-22T16:41:57.290Z,20.42
2019-03-22T16:44:31.368Z,18.73
2019-03-22T16:47:05.608Z,17.56
2019-03-22T16:49:40.213Z,16.73
2019-03-22T16:52:14.733Z,16.14
2019-03-22T16:54:49.323Z,15.68
2019-03-22T16:57:24.453Z,15.25
2019-03-22T16:59:58.874Z,14.88
2019-03-22T17:02:34.478Z,14.55
2019-03-22T17:05:09.128Z,14.22
2019-03-22T17:07:43.281Z,16.74
2019-03-22T17:10:17.672Z,20.55
2019-03-22T17:12:52.864Z,20.20
2019-03-22T17:15:28.094Z,18.52
2019-03-22T17:18:03.123Z,17.39
2019-03-22T17:20:37.206Z,16.59
2019-03-22T17:23:11.353Z,16.04
2019-03-22T17:25:45.474Z,15.53
2019-03-22T17:28:19.869Z,15.14
2019-03-22T17:30:55.594Z,14.82
2019-03-22T17:33:29.731Z,14.51
2019-03-22T17:36:04.794Z,16.73
2019-03-22T17:38:39.611Z,20.59
2019-03-22T17:41:15.567Z,20.25
2019-03-22T17:43:49.769Z,18.58
2019-03-22T17:46:23.950Z,17.43
2019-03-22T17:48:59.368Z,16.67
2019-03-22T17:51:33.585Z,16.10
2019-03-22T17:54:07.686Z,15.61
2019-03-22T17:56:53.367Z,15.19
2019-03-22T17:59:29.203Z,14.79
2019-03-22T18:02:03.498Z,14.45
2019-03-22T18:04:38.794Z,14.14
2019-03-22T18:07:13.487Z,13.85
2019-03-22T18:09:47.696Z,16.32
2019-03-22T18:12:21.713Z,20.13
2019-03-22T18:14:59.471Z,19.73
2019-03-22T18:17:34.666Z,18.04
2019-03-22T18:20:11.313Z,16.94
2019-03-22T18:22:45.549Z,16.16
2019-03-22T18:25:19.810Z,15.58
2019-03-22T18:27:54.255Z,15.15
2019-03-22T18:30:30.006Z,14.75
2019-03-22T18:33:04.026Z,14.42
2019-03-22T18:35:39.036Z,14.10
2019-03-22T18:38:13.089Z,13.79
2019-03-22T18:40:47.624Z,16.41
2019-03-22T18:43:21.794Z,20.24
2019-03-22T18:45:58.633Z,19.86
2019-03-22T18:48:32.957Z,18.17
2019-03-22T18:51:07.385Z,17.03
2019-03-22T18:53:41.532Z,16.27
2019-03-22T18:56:15.756Z,15.69
2019-03-22T18:58:51.474Z,15.22
2019-03-22T19:01:37.592Z,14.82
2019-03-22T19:04:16.440Z,14.43
2019-03-22T19:06:51.759Z,14.11
2019-03-22T19:09:26.783Z,13.80
2019-03-22T19:12:01.103Z,16.35
2019-03-22T19:14:35.355Z,20.22
2019-03-22T19:17:09.576Z,19.84
2019-03-22T19:19:43.602Z,18.14
2019-03-22T19:22:17.707Z,17.01
2019-03-22T19:24:51.837Z,16.21
2019-03-22T19:27:26.086Z,15.61
2019-03-22T19:30:00.405Z,15.13
2019-03-22T19:32:35.842Z,14.72
2019-03-22T19:35:11.124Z,14.36
2019-03-22T19:37:45.226Z,14.01
2019-03-22T19:40:20.207Z,16.60
2019-03-22T19:42:55.780Z,20.29
2019-03-22T19:45:30.069Z,19.90
2019-03-22T19:48:06.517Z,18.21
2019-03-22T19:50:45.558Z,17.01
2019-03-22T19:53:21.032Z,16.23
2019-03-22T19:55:56.031Z,15.65
2019-03-22T19:58:30.381Z,15.14
2019-03-22T20:01:06.110Z,14.76
2019-03-22T20:03:48.229Z,14.38
2019-03-22T20:06:24.151Z,17.10
2019-03-22T20:08:58.423Z,20.70
2019-03-22T20:11:33.695Z,20.18
2019-03-22T20:14:08.033Z,18.44
2019-03-22T20:16:45.826Z,17.22
2019-03-22T20:19:21.870Z,16.36
2019-03-22T20:21:57.776Z,15.73
2019-03-22T20:24:32.447Z,15.22
2019-03-22T20:27:06.704Z,14.79
2019-03-22T20:29:41.233Z,14.39
2019-03-22T20:32:15.462Z,16.97
2019-03-22T20:34:50.622Z,20.68
2019-03-22T20:37:24.817Z,20.24
2019-03-22T20:39:58.820Z,18.52
2019-03-22T20:42:33.030Z,17.37
2019-03-22T20:45:07.243Z,16.52
2019-03-22T20:47:42.072Z,15.89
2019-03-22T20:50:16.297Z,15.39
2019-03-22T20:52:50.400Z,14.96
2019-03-22T20:55:24.682Z,14.58
2019-03-22T20:58:01.515Z,14.20
2019-03-22T21:00:35.765Z,16.67
2019-03-22T21:03:10.014Z,20.38
2019-03-22T21:05:44.146Z,19.99
2019-03-22T21:08:18.278Z,18.18
2019-03-22T21:10:52.532Z,17.03
2019-03-22T21:13:26.726Z,16.24
2019-03-22T21:16:00.760Z,15.63
2019-03-22T21:18:34.749Z,15.11
2019-03-22T21:21:08.850Z,14.68
2019-03-22T21:23:42.872Z,14.33
2019-03-22T21:26:16.865Z,13.97
2019-03-22T21:28:50.959Z,16.28
2019-03-22T21:31:25.021Z,19.87
2019-03-22T21:33:59.242Z,19.07
2019-03-22T21:36:33.385Z,17.55
2019-03-22T21:39:08.922Z,16.52
2019-03-22T21:41:43.829Z,15.77
2019-03-22T21:44:17.845Z,15.21
2019-03-22T21:46:51.962Z,14.79
2019-03-22T21:49:25.966Z,14.41
2019-03-22T21:51:59.983Z,14.08
2019-03-22T21:54:33.997Z,13.76
2019-03-22T21:57:08.030Z,16.32
2019-03-22T21:59:42.027Z,20.15
2019-03-22T22:02:16.016Z,19.74
2019-03-22T22:04:50.604Z,18.10
2019-03-22T22:07:24.809Z,16.91
2019-03-22T22:09:58.841Z,16.13
2019-03-22T22:12:32.872Z,15.53
2019-03-22T22:15:10.228Z,15.03
2019-03-22T22:17:44.560Z,14.62
2019-03-22T22:20:28.455Z,14.24
2019-03-22T22:22:54.285Z,13.92
2019-03-22T22:25:29.703Z,13.62
2019-03-22T22:28:03.897Z,16.20
2019-03-22T22:30:37.903Z,18.55
2019-03-22T22:33:11.939Z,17.34
2019-03-22T22:35:46.987Z,16.18
2019-03-22T22:38:21.009Z,15.39
2019-03-22T22:40:55.162Z,14.80
2019-03-22T22:43:29.422Z,14.38
2019-03-22T22:46:03.446Z,14.01
2019-03-22T22:48:37.573Z,13.69
2019-03-22T22:51:11.481Z,16.10
2019-03-22T22:53:45.614Z,19.28
2019-03-22T22:56:19.733Z,18.27
2019-03-22T22:58:53.847Z,16.93
2019-03-22T23:01:27.938Z,15.96
2019-03-22T23:04:02.418Z,15.28
2019-03-22T23:06:36.593Z,14.82
2019-03-22T23:09:10.734Z,14.36
2019-03-22T23:11:44.851Z,14.00
2019-03-22T23:14:18.979Z,13.65
2019-03-22T23:16:52.975Z,13.39
2019-03-22T23:19:27.061Z,15.83
2019-03-22T23:22:01.171Z,19.65
2019-03-22T23:24:35.249Z,19.34
2019-03-22T23:27:10.199Z,17.68
2019-03-22T23:29:44.200Z,16.53
2019-03-22T23:32:18.382Z,15.74
2019-03-22T23:34:58.895Z,15.18
2019-03-22T23:37:28.164Z,14.73
2019-03-22T23:40:02.202Z,14.35
2019-03-22T23:42:36.569Z,13.97
2019-03-22T23:45:10.739Z,13.66
2019-03-22T23:47:46.001Z,13.32
2019-03-22T23:50:20.094Z,13.10
2019-03-22T23:52:54.189Z,12.82
2019-03-22T23:55:28.699Z,15.27
2019-03-22T23:58:03.688Z,19.30
